createdAt,value
2017-08-20T00:02:53.491Z,100548.95
2017-08-20T00:05:55.631Z,100550.67
2017-08-20T00:08:57.047Z,100536.90
2017-08-20T00:11:58.392Z,100537.89
2017-08-20T00:14:59.755Z,100540.27
2017-08-20T00:18:01.091Z,100545.34
2017-08-20T00:21:02.471Z,100537.38
2017-08-20T00:24:03.864Z,100536.73
2017-08-20T00:27:06.035Z,100543.31
2017-08-20T00:30:08.160Z,100537.99
2017-08-20T00:33:09.563Z,100531.36
2017-08-20T00:36:11.715Z,100539.88
2017-08-20T00:39:13.084Z,100549.25
2017-08-20T00:42:15.218Z,100540.73
2017-08-20T00:45:16.612Z,100549.39
2017-08-20T00:48:18.037Z,100543.31
2017-08-20T00:51:19.380Z,100553.03
2017-08-20T00:54:20.858Z,100552.37
2017-08-20T00:57:23.041Z,100549.90
2017-08-20T01:00:24.443Z,100558.50
2017-08-20T01:03:25.893Z,100546.98
2017-08-20T01:06:27.244Z,100545.25
2017-08-20T01:09:28.632Z,100545.36
2017-08-20T01:12:29.983Z,100537.47
2017-08-20T01:15:31.349Z,100540.77
2017-08-20T01:18:32.742Z,100541.53
2017-08-20T01:21:34.183Z,100556.13
2017-08-20T01:24:35.526Z,100555.60
2017-08-20T01:27:36.861Z,100559.01
2017-08-20T01:30:38.296Z,100550.50
2017-08-20T01:33:39.629Z,100562.55
2017-08-20T01:36:41.744Z,100572.56
2017-08-20T01:39:43.089Z,100566.25
2017-08-20T01:42:44.458Z,100574.98
2017-08-20T01:45:45.908Z,100575.31
2017-08-20T01:48:47.265Z,100576.01
2017-08-20T01:51:48.677Z,100578.38
2017-08-20T01:54:50.083Z,100570.22
2017-08-20T01:57:51.465Z,100586.59
2017-08-20T02:00:53.582Z,100576.47
2017-08-20T02:03:54.922Z,100568.41
2017-08-20T02:06:56.385Z,100567.05
2017-08-20T02:09:57.789Z,100583.98
2017-08-20T02:12:59.181Z,100585.87
2017-08-20T02:16:00.558Z,100589.27
2017-08-20T02:19:01.947Z,100583.96
2017-08-20T02:22:03.336Z,100592.53
2017-08-20T02:25:04.709Z,100590.11
2017-08-20T02:28:06.030Z,100590.93
2017-08-20T02:31:07.453Z,100583.92
2017-08-20T02:34:08.878Z,100582.98
2017-08-20T02:37:10.997Z,100578.48
2017-08-20T02:40:12.366Z,100587.50
2017-08-20T02:43:13.719Z,100588.04
2017-08-20T02:46:15.137Z,100589.05
2017-08-20T02:49:16.491Z,100587.36
2017-08-20T02:52:17.916Z,100593.25
2017-08-20T02:55:20.154Z,100580.34
2017-08-20T02:58:21.552Z,100589.73
2017-08-20T03:01:22.963Z,100588.02
2017-08-20T03:04:24.352Z,100595.84
2017-08-20T03:07:25.771Z,100595.92
2017-08-20T03:10:27.155Z,100591.99
2017-08-20T03:13:28.573Z,100596.28
2017-08-20T03:16:30.007Z,100598.16
2017-08-20T03:19:31.379Z,100592.37
2017-08-20T03:22:33.514Z,100598.06
2017-08-20T03:25:34.848Z,100590.52
2017-08-20T03:28:36.274Z,100600.19
2017-08-20T03:31:37.674Z,100609.00
2017-08-20T03:34:39.061Z,100596.90
2017-08-20T03:37:40.457Z,100597.20
2017-08-20T03:40:41.899Z,100593.92
2017-08-20T03:43:43.244Z,100595.19
2017-08-20T03:46:44.603Z,100585.42
2017-08-20T03:49:45.951Z,100588.12
2017-08-20T03:52:47.341Z,100600.09
2017-08-20T03:55:48.752Z,100602.88
2017-08-20T03:58:50.152Z,100605.30
2017-08-20T04:01:51.546Z,100616.94
2017-08-20T04:04:52.946Z,100616.05
2017-08-20T04:07:54.314Z,100619.27
2017-08-20T04:10:56.462Z,100618.30
2017-08-20T04:13:57.861Z,100621.79
2017-08-20T04:16:59.204Z,100615.66
2017-08-20T04:20:00.601Z,100623.45
2017-08-20T04:23:01.969Z,100631.56
2017-08-20T04:26:03.402Z,100627.00
2017-08-20T04:29:04.817Z,100637.27
2017-08-20T04:32:06.214Z,100632.86
2017-08-20T04:35:07.603Z,100633.98
2017-08-20T04:38:09.753Z,100639.07
2017-08-20T04:41:11.213Z,100644.13
2017-08-20T04:44:13.343Z,100642.02
2017-08-20T04:47:14.708Z,100657.06
2017-08-20T04:50:16.084Z,100661.54
2017-08-20T04:53:17.434Z,100654.64
2017-08-20T04:56:18.834Z,100656.86
2017-08-20T04:59:20.251Z,100656.80
2017-08-20T05:02:22.356Z,100669.46
2017-08-20T05:05:23.761Z,100666.58
2017-08-20T05:08:26.043Z,100664.33
2017-08-20T05:11:28.171Z,100664.55
2017-08-20T05:14:29.530Z,100658.53
2017-08-20T05:17:30.864Z,100672.34
2017-08-20T05:20:32.258Z,100662.88
2017-08-20T05:23:34.371Z,100648.63
2017-08-20T05:26:35.775Z,100664.67
2017-08-20T05:29:37.894Z,100651.51
2017-08-20T05:32:39.263Z,100663.94
2017-08-20T05:35:40.678Z,100668.42
2017-08-20T05:38:42.077Z,100654.09
2017-08-20T05:41:44.223Z,100656.08
2017-08-20T05:44:45.646Z,100654.02
2017-08-20T05:47:47.029Z,100660.94
2017-08-20T05:50:48.435Z,100660.94
2017-08-20T05:53:49.850Z,100659.52
2017-08-20T05:56:51.281Z,100661.34
2017-08-20T05:59:52.732Z,100670.88
2017-08-20T06:02:54.162Z,100681.67
2017-08-20T06:05:55.555Z,100674.56
2017-08-20T06:08:57.115Z,100679.75
2017-08-20T06:11:59.311Z,100693.89
2017-08-20T06:15:00.700Z,100694.19
2017-08-20T06:18:02.154Z,100700.33
2017-08-20T06:21:03.612Z,100698.17
2017-08-20T06:24:05.125Z,100693.75
2017-08-20T06:27:06.480Z,100717.86
2017-08-20T06:30:07.953Z,100716.35
2017-08-20T06:33:09.346Z,100720.00
2017-08-20T06:36:10.789Z,100723.05
2017-08-20T06:39:12.158Z,100733.38
2017-08-20T06:42:13.565Z,100729.06
2017-08-20T06:45:15.053Z,100736.41
2017-08-20T06:48:16.579Z,100737.79
2017-08-20T06:51:18.009Z,100742.03
2017-08-20T06:54:19.443Z,100749.84
2017-08-20T06:57:20.892Z,100738.80
2017-08-20T07:00:22.274Z,100737.30
2017-08-20T07:03:23.838Z,100738.23
2017-08-20T07:06:26.178Z,100751.46
2017-08-20T07:09:27.693Z,100761.41
2017-08-20T07:12:29.081Z,100751.59
2017-08-20T07:15:30.555Z,100758.15
2017-08-20T07:18:31.952Z,100758.15
2017-08-20T07:21:33.340Z,100761.12
2017-08-20T07:24:34.693Z,100754.67
2017-08-20T07:27:36.020Z,100764.03
2017-08-20T07:30:37.403Z,100751.81
2017-08-20T07:33:38.741Z,100760.52
2017-08-20T07:36:40.119Z,100761.56
2017-08-20T07:39:41.447Z,100760.09
2017-08-20T07:42:42.851Z,100771.17
2017-08-20T07:45:44.219Z,100766.53
2017-08-20T07:48:46.346Z,100770.71
2017-08-20T07:51:47.773Z,100762.98
2017-08-20T07:54:49.119Z,100772.63
2017-08-20T07:57:50.520Z,100780.58
2017-08-20T08:00:51.899Z,100779.55
2017-08-20T08:03:53.311Z,100788.48
2017-08-20T08:06:54.734Z,100779.63
2017-08-20T08:09:56.131Z,100790.11
2017-08-20T08:12:57.546Z,100784.72
2017-08-20T08:15:58.867Z,100787.82
2017-08-20T08:19:01.148Z,100781.84
2017-08-20T08:22:02.543Z,100780.70
2017-08-20T08:25:03.909Z,100784.33
2017-08-20T08:28:05.268Z,100802.33
2017-08-20T08:31:06.667Z,100794.41
2017-08-20T08:34:08.015Z,100783.84
2017-08-20T08:37:09.405Z,100788.41
2017-08-20T08:40:10.807Z,100786.02
2017-08-20T08:43:12.164Z,100796.31
2017-08-20T08:46:13.567Z,100797.64
2017-08-20T08:49:14.887Z,100799.13
2017-08-20T08:52:16.252Z,100806.69
2017-08-20T08:55:17.655Z,100806.86
2017-08-20T08:58:19.058Z,100799.72
2017-08-20T09:01:20.418Z,100801.25
2017-08-20T09:04:21.787Z,100792.56
2017-08-20T09:07:23.883Z,100795.09
2017-08-20T09:10:25.218Z,100810.16
2017-08-20T09:13:26.599Z,100808.72
2017-08-20T09:16:27.947Z,100797.70
2017-08-20T09:19:29.313Z,100811.12
2017-08-20T09:22:30.701Z,100807.77
2017-08-20T09:25:32.826Z,100810.37
2017-08-20T09:28:34.168Z,100811.34
2017-08-20T09:31:35.556Z,100811.64
2017-08-20T09:34:37.014Z,100822.50
2017-08-20T09:37:38.367Z,100823.33
2017-08-20T09:40:39.720Z,100815.55
2017-08-20T09:43:41.047Z,100822.26
2017-08-20T09:46:42.425Z,100821.26
2017-08-20T09:49:44.485Z,100821.68
2017-08-20T09:52:45.853Z,100817.41
2017-08-20T09:55:47.986Z,100818.59
2017-08-20T09:58:49.372Z,100819.07
2017-08-20T10:01:51.464Z,100816.55
2017-08-20T10:04:52.830Z,100808.81
2017-08-20T10:07:54.183Z,100804.41
2017-08-20T10:10:55.608Z,100802.89
2017-08-20T10:13:56.944Z,100813.05
2017-08-20T10:16:58.325Z,100810.45
2017-08-20T10:20:00.146Z,100803.88
2017-08-20T10:23:02.218Z,100801.32
2017-08-20T10:26:04.344Z,100805.19
2017-08-20T10:29:05.707Z,100809.47
2017-08-20T10:32:07.076Z,100810.94
2017-08-20T10:35:09.190Z,100807.00
2017-08-20T10:38:10.549Z,100809.22
2017-08-20T10:41:11.946Z,100821.64
2017-08-20T10:44:13.307Z,100817.98
2017-08-20T10:47:15.438Z,100819.28
2017-08-20T10:50:16.772Z,100815.41
2017-08-20T10:53:18.158Z,100812.52
2017-08-20T10:56:19.565Z,100799.91
2017-08-20T10:59:20.932Z,100812.80
2017-08-20T11:02:22.296Z,100805.00
2017-08-20T11:05:23.641Z,100815.28
2017-08-20T11:08:24.988Z,100816.39
2017-08-20T11:11:26.332Z,100811.48
2017-08-20T11:14:27.729Z,100812.28
2017-08-20T11:17:29.781Z,100827.34
2017-08-20T11:20:31.181Z,100820.97
2017-08-20T11:23:32.515Z,100823.45
2017-08-20T11:26:33.889Z,100827.94
2017-08-20T11:29:35.245Z,100830.91
2017-08-20T11:32:36.595Z,100823.89
2017-08-20T11:35:37.994Z,100822.69
2017-08-20T11:38:39.352Z,100840.63
2017-08-20T11:41:41.500Z,100829.09
2017-08-20T11:44:42.870Z,100843.55
2017-08-20T11:47:44.275Z,100845.53
2017-08-20T11:50:45.943Z,100840.03
2017-08-20T11:53:47.289Z,100834.88
2017-08-20T11:56:48.720Z,100822.64
2017-08-20T11:59:50.086Z,100837.45
2017-08-20T12:02:51.502Z,100844.10
2017-08-20T12:05:52.856Z,100829.98
2017-08-20T12:08:54.252Z,100847.56
2017-08-20T12:11:55.596Z,100850.69
2017-08-20T12:14:57.029Z,100847.86
2017-08-20T12:17:58.436Z,100846.30
2017-08-20T12:21:00.500Z,100853.19
2017-08-20T12:24:02.606Z,100855.88
2017-08-20T12:27:03.944Z,100860.18
2017-08-20T12:30:06.238Z,100863.29
2017-08-20T12:33:07.728Z,100862.43
2017-08-20T12:36:09.405Z,100856.81
2017-08-20T12:39:10.819Z,100867.37
2017-08-20T12:42:12.436Z,100863.43
2017-08-20T12:45:23.767Z,100857.61
2017-08-20T12:48:25.182Z,100850.97
2017-08-20T12:51:26.854Z,100859.18
2017-08-20T12:54:28.254Z,100855.64
2017-08-20T12:57:30.686Z,100857.92
2017-08-20T13:00:32.031Z,100848.95
2017-08-20T13:03:33.434Z,100855.79
2017-08-20T13:06:35.725Z,100845.77
2017-08-20T13:09:37.123Z,100834.49
2017-08-20T13:12:38.515Z,100837.45
2017-08-20T13:15:40.675Z,100838.30
2017-08-20T13:18:42.914Z,100831.90
2017-08-20T13:21:44.416Z,100825.63
2017-08-20T13:24:45.888Z,100820.20
2017-08-20T13:27:47.188Z,100827.89
2017-08-20T13:30:48.563Z,100814.47
2017-08-20T13:33:50.922Z,100816.12
2017-08-20T13:36:53.140Z,100807.77
2017-08-20T13:39:54.519Z,100820.17
2017-08-20T13:42:55.965Z,100813.81
2017-08-20T13:45:57.347Z,100808.82
2017-08-20T13:48:58.784Z,100813.02
2017-08-20T13:52:00.288Z,100813.87
2017-08-20T13:55:01.768Z,100813.94
2017-08-20T13:58:03.677Z,100837.67
2017-08-20T14:01:05.037Z,100839.81
2017-08-20T14:04:06.443Z,100848.47
2017-08-20T14:07:08.149Z,100846.08
2017-08-20T14:10:10.637Z,100845.93
2017-08-20T14:13:12.244Z,100848.45
2017-08-20T14:16:13.823Z,100853.99
2017-08-20T14:19:15.307Z,100846.27
2017-08-20T14:22:16.717Z,100850.56
2017-08-20T14:25:18.097Z,100849.10
2017-08-20T14:28:19.616Z,100851.23
2017-08-20T14:31:21.193Z,100837.36
2017-08-20T14:34:24.474Z,100842.33
2017-08-20T14:37:25.962Z,100838.80
2017-08-20T14:40:27.308Z,100839.52
2017-08-20T14:43:29.074Z,100844.08
2017-08-20T14:46:30.576Z,100847.02
2017-08-20T14:49:32.197Z,100834.84
2017-08-20T14:52:33.652Z,100858.75
2017-08-20T14:55:35.084Z,100854.20
2017-08-20T14:58:36.581Z,100849.45
2017-08-20T15:01:38.000Z,100845.27
2017-08-20T15:04:39.552Z,100846.17
2017-08-20T15:07:41.528Z,100846.92
2017-08-20T15:10:42.900Z,100845.52
2017-08-20T15:13:44.251Z,100837.23
2017-08-20T15:16:45.588Z,100825.77
2017-08-20T15:19:46.980Z,100825.62
2017-08-20T15:22:48.324Z,100839.54
2017-08-20T15:25:49.669Z,100845.56
2017-08-20T15:28:51.206Z,100835.13
2017-08-20T15:31:52.933Z,100845.76
2017-08-20T15:34:54.298Z,100854.67
2017-08-20T15:37:55.751Z,100862.72
2017-08-20T15:40:57.136Z,100849.27
2017-08-20T15:43:58.607Z,100849.16
2017-08-20T15:47:00.772Z,100846.71
2017-08-20T15:50:02.289Z,100853.31
2017-08-20T15:53:03.950Z,100845.55
2017-08-20T15:56:05.429Z,100854.55
2017-08-20T15:59:06.936Z,100858.72
2017-08-20T16:02:08.327Z,100855.47
2017-08-20T16:05:09.696Z,100849.34
2017-08-20T16:08:11.857Z,100841.41
2017-08-20T16:11:13.240Z,100848.83
2017-08-20T16:14:14.953Z,100853.94
2017-08-20T16:17:16.366Z,100854.25
2017-08-20T16:20:17.824Z,100859.58
2017-08-20T16:23:19.205Z,100853.09
2017-08-20T16:26:20.967Z,100862.78
2017-08-20T16:29:26.838Z,100853.58
2017-08-20T16:32:28.605Z,100858.13
2017-08-20T16:35:30.775Z,100851.28
2017-08-20T16:38:32.431Z,100853.09
2017-08-20T16:41:34.058Z,100850.03
2017-08-20T16:44:35.669Z,100856.17
2017-08-20T16:47:37.105Z,100842.05
2017-08-20T16:50:38.467Z,100845.77
2017-08-20T16:53:40.315Z,100846.53
2017-08-20T16:56:41.905Z,100842.42
2017-08-20T16:59:43.500Z,100841.95
2017-08-20T17:02:44.929Z,100831.98
2017-08-20T17:05:46.761Z,100834.42
2017-08-20T17:08:48.221Z,100832.88
2017-08-20T17:11:49.651Z,100831.02
2017-08-20T17:14:51.101Z,100830.06
2017-08-20T17:17:52.473Z,100827.88
2017-08-20T17:20:53.936Z,100836.92
2017-08-20T17:23:55.331Z,100839.00
2017-08-20T17:26:57.401Z,100831.37
2017-08-20T17:29:59.527Z,100823.75
2017-08-20T17:33:00.870Z,100838.47
2017-08-20T17:36:02.276Z,100836.76
2017-08-20T17:39:03.850Z,100831.34
2017-08-20T17:42:05.181Z,100839.31
2017-08-20T17:45:07.346Z,100831.91
2017-08-20T17:48:09.428Z,100839.19
2017-08-20T17:51:10.826Z,100841.45
2017-08-20T17:54:13.492Z,100845.02
2017-08-20T17:57:15.343Z,100855.98
2017-08-20T18:00:17.121Z,100850.42
2017-08-20T18:03:19.529Z,100857.36
2017-08-20T18:06:22.257Z,100860.19
2017-08-20T18:09:24.821Z,100854.35
2017-08-20T18:12:26.280Z,100863.71
2017-08-20T18:15:28.647Z,100868.81
2017-08-20T18:18:31.248Z,100871.47
2017-08-20T18:21:34.482Z,100879.77
2017-08-20T18:24:38.569Z,100877.63
2017-08-20T18:27:41.040Z,100878.47
2017-08-20T18:30:42.390Z,100884.66
2017-08-20T18:33:45.442Z,100882.44
2017-08-20T18:36:50.716Z,100880.83
2017-08-20T18:39:53.707Z,100883.89
2017-08-20T18:42:55.237Z,100894.30
2017-08-20T18:45:57.506Z,100893.94
2017-08-20T18:48:58.903Z,100900.22
2017-08-20T18:52:01.184Z,100905.55
2017-08-20T18:55:02.766Z,100908.20
2017-08-20T18:58:05.516Z,100908.26
2017-08-20T19:01:08.168Z,100916.85
2017-08-20T19:04:13.103Z,100909.97
2017-08-20T19:07:15.416Z,100918.26
2017-08-20T19:10:17.592Z,100927.45
2017-08-20T19:13:19.019Z,100926.09
2017-08-20T19:16:20.418Z,100926.10
2017-08-20T19:19:21.807Z,100924.13
2017-08-20T19:22:26.022Z,100923.30
2017-08-20T19:25:28.169Z,100932.68
2017-08-20T19:28:30.958Z,100932.79
2017-08-20T19:31:33.678Z,100943.52
2017-08-20T19:34:36.462Z,100938.50
2017-08-20T19:37:37.994Z,100939.54
2017-08-20T19:40:40.758Z,100956.36
2017-08-20T19:43:43.119Z,100941.38
2017-08-20T19:46:44.858Z,100955.58
2017-08-20T19:49:47.007Z,100963.41
2017-08-20T19:52:48.463Z,100957.45
2017-08-20T19:55:51.668Z,100958.30
2017-08-20T19:58:53.829Z,100965.22
2017-08-20T20:01:55.369Z,100956.78
2017-08-20T20:04:57.506Z,100962.94
2017-08-20T20:07:59.081Z,100957.45
2017-08-20T20:11:00.666Z,100962.59
2017-08-20T20:14:02.201Z,100977.81
2017-08-20T20:17:04.231Z,100979.22
2017-08-20T20:20:05.935Z,100972.77
2017-08-20T20:23:08.363Z,100972.52
2017-08-20T20:26:10.011Z,100978.23
2017-08-20T20:29:11.591Z,100964.00
2017-08-20T20:32:13.223Z,100970.41
2017-08-20T20:35:14.750Z,100960.44
2017-08-20T20:38:17.083Z,100951.78
2017-08-20T20:41:18.649Z,100954.26
2017-08-20T20:44:20.256Z,100946.53
2017-08-20T20:47:21.835Z,100957.74
2017-08-20T20:50:23.409Z,100972.80
2017-08-20T20:53:24.939Z,100944.95
2017-08-20T20:56:26.420Z,100978.80
2017-08-20T20:59:28.097Z,100981.93
2017-08-20T21:02:29.670Z,100976.67
2017-08-20T21:05:31.942Z,100982.29
2017-08-20T21:08:34.164Z,100975.42
2017-08-20T21:11:35.680Z,100987.53
2017-08-20T21:14:37.136Z,100982.24
2017-08-20T21:17:38.813Z,100975.55
2017-08-20T21:20:40.292Z,100975.20
2017-08-20T21:23:41.824Z,100979.37
2017-08-20T21:26:43.519Z,100975.36
2017-08-20T21:29:45.759Z,100978.45
2017-08-20T21:32:47.393Z,100972.05
2017-08-20T21:35:48.944Z,100969.05
2017-08-20T21:38:50.337Z,100962.44
2017-08-20T21:41:51.917Z,100958.81
2017-08-20T21:44:53.393Z,100955.98
2017-08-20T21:47:55.664Z,100963.90
2017-08-20T21:50:57.158Z,100966.20
2017-08-20T21:53:58.637Z,100973.24
2017-08-20T21:57:00.123Z,100965.52
2017-08-20T22:00:03.441Z,100957.44
2017-08-20T22:03:04.873Z,100957.77
2017-08-20T22:06:07.380Z,100959.00
2017-08-20T22:09:08.791Z,100961.66
2017-08-20T22:12:11.073Z,100951.78
2017-08-20T22:15:13.309Z,100958.25
2017-08-20T22:18:14.898Z,100973.73
2017-08-20T22:21:16.395Z,100945.25
2017-08-20T22:24:17.878Z,100955.78
2017-08-20T22:27:19.458Z,100951.19
2017-08-20T22:30:21.633Z,100953.30
2017-08-20T22:33:23.235Z,100951.58
2017-08-20T22:36:24.840Z,100951.02
2017-08-20T22:39:26.405Z,100947.16
2017-08-20T22:42:27.926Z,100946.03
2017-08-20T22:45:29.414Z,100945.11
2017-08-20T22:48:30.921Z,100936.48
2017-08-20T22:51:32.437Z,100951.98
2017-08-20T22:54:33.909Z,100946.23
2017-08-20T22:57:35.438Z,100942.77
2017-08-20T23:00:36.969Z,100947.36
2017-08-20T23:03:38.421Z,100937.47
2017-08-20T23:06:40.687Z,100938.23
2017-08-20T23:09:42.956Z,100934.89
2017-08-20T23:12:44.498Z,100934.59
2017-08-20T23:15:46.801Z,100931.69
2017-08-20T23:18:49.008Z,100936.77
2017-08-20T23:21:50.489Z,100929.27
2017-08-20T23:24:52.125Z,100932.52
2017-08-20T23:27:53.689Z,100935.42
2017-08-20T23:30:55.214Z,100924.34
2017-08-20T23:33:56.692Z,100925.37
2017-08-20T23:36:58.287Z,100925.78
2017-08-20T23:39:59.789Z,100899.54
2017-08-20T23:43:01.299Z,100918.69
2017-08-20T23:46:03.525Z,100917.48
2017-08-20T23:49:05.258Z,100916.97
2017-08-20T23:52:06.718Z,100926.47
2017-08-20T23:55:08.206Z,100930.62
2017-08-20T23:58:09.732Z,100939.56
